Featured Flight

MET5760 - Boston to Baltimore

Embraer ERJ-170LR
N920AU
1 hr 15 mins
321 nm
Scheduled - Daily

Bid/PiRep Status

Bid was submitted on January 2nd, 2017 20:49 UTC.
PiRep # 74599: Approved by Sean Doyle on January 4th, 2017 23:10 UTC

Departure

Departing from
Boston (BOS)
Departure gate
Scheduled Departure
GMT 0136
Local 2036
METAR KBOS 232354Z 27009KT 10SM FEW040 FEW140 SCT220 24/11 A2980 RMK AO2 SLP092 T02440106 10289 20244 53014
TAF KBOS 232320Z 2400/2506 29008KT P6SM SCT250 FM240900 29005KT P6SM SKC FM241600 10005KT P6SM FEW250 FM241900 09008KT P6SM FEW060 FM250100 12005KT P6SM FEW060

Route Map

Planning Resources

PUT,JFK,COL,VCN,ENO
BURDY SEY HTO HOFFI SHLEP CREEL JOANI RBV COPES MXE STOEN SACRI
PATSS1.DEDHM DEDHM NELIE CMK J75 MXE V378 BAL
KBOS OOD PUT HFD PACER RBV OOD KBWI
PATSS2 PATSS NELIE CMK J75 MXE V378 BAL
Route:
OFP Layout:
Units:
Detailed Navlog:
ETOPS Planning:
Plan Stepclimbs:
Runway Analysis:
Include NOTAMS:
FIR NOTAMS:
Flight Maps:

Return Flights

MET765
Airbus A321-232
2300 GMT
MET5691
Embraer ERJ-170LR
1115 GMT
MET5759
Embraer ERJ-170LR
1645 GMT
MET5763
Embraer ERJ-170LR
2345 GMT

Popularity

Hub Current Bids PiReps this month Total PiReps
KMCI 0 0 1
KLAX 0 0 0
KBOS 0 0 1